Time;durP1;ratioP1;P1;durP2;ratioP2;P2;SDS_P1;SDS_P2;PMS_P1;PMS_P2;Temp;Humidity;BMP_temperature;BMP_pressure;BME280_temperature;BME280_humidity;BME280_pressure;Samples;Min_cycle;Max_cycle;Signal;HPM_P1;HPM_P2
2021/11/07 00:04:32;;;;;;;5.90;1.30;;;20.60;59.70;;;;;;5019734;28;20572;-44
2021/11/07 00:07:12;;;;;;;4.55;1.50;;;20.70;59.70;;;;;;5016124;28;20206;-45
2021/11/07 00:09:48;;;;;;;4.13;1.33;;;20.70;59.40;;;;;;5030010;28;20200;-44
2021/11/07 00:12:21;;;;;;;2.88;1.60;;;20.80;59.30;;;;;;5014475;28;20286;-44
2021/11/07 00:14:52;;;;;;;2.13;1.10;;;20.80;59.20;;;;;;5014579;28;20307;-46
2021/11/07 00:17:28;;;;;;;2.10;1.27;;;20.80;59.00;;;;;;5031793;28;20589;-44
2021/11/07 00:20:04;;;;;;;3.22;1.15;;;20.90;58.90;;;;;;5029528;28;20207;-46
2021/11/07 00:22:44;;;;;;;3.67;1.27;;;20.90;58.70;;;;;;5030425;28;20223;-45
2021/11/07 00:25:22;;;;;;;2.70;1.20;;;21.00;58.60;;;;;;5031149;28;20196;-46
2021/11/07 00:27:55;;;;;;;3.78;1.35;;;21.00;58.40;;;;;;5030093;28;20231;-44
2021/11/07 00:30:35;;;;;;;4.82;1.80;;;21.00;58.30;;;;;;5029100;28;20287;-42
2021/11/07 00:33:20;;;;;;;3.00;1.00;;;21.10;58.30;;;;;;5029893;28;20224;-44
2021/11/07 00:36:11;;;;;;;3.53;1.35;;;21.10;58.10;;;;;;5029266;28;20557;-47
2021/11/07 00:38:47;;;;;;;4.32;1.50;;;21.10;58.00;;;;;;5020322;28;20211;-44
2021/11/07 00:41:23;;;;;;;2.50;1.30;;;21.20;58.00;;;;;;5030191;28;20282;-44
2021/11/07 00:43:59;;;;;;;2.40;1.20;;;21.20;58.00;;;;;;5029423;28;20219;-46
2021/11/07 00:46:34;;;;;;;3.33;1.50;;;21.20;57.70;;;;;;5029767;28;20196;-47
2021/11/07 00:49:09;;;;;;;2.63;1.25;;;21.30;57.70;;;;;;5022948;28;20297;-45
2021/11/07 00:51:46;;;;;;;3.00;1.20;;;21.30;57.60;;;;;;5030562;28;20758;-46
2021/11/07 00:54:25;;;;;;;3.42;1.52;;;21.30;57.60;;;;;;5021909;28;20262;-44
2021/11/07 00:56:57;;;;;;;3.50;1.40;;;21.40;57.60;;;;;;5030681;28;20195;-44
2021/11/07 00:59:47;;;;;;;1.65;1.15;;;21.40;57.40;;;;;;5028352;28;20208;-46
2021/11/07 01:02:20;;;;;;;2.38;1.20;;;21.50;57.40;;;;;;5028347;28;20224;-44
2021/11/07 01:04:53;;;;;;;3.60;1.42;;;21.50;57.30;;;;;;5029220;28;20626;-47
2021/11/07 01:07:24;;;;;;;3.60;1.20;;;21.50;57.30;;;;;;5029576;28;20711;-42
2021/11/07 01:09:56;;;;;;;3.15;1.42;;;21.60;57.20;;;;;;5019794;28;20200;-44
2021/11/07 01:12:27;;;;;;;3.05;1.30;;;21.60;57.30;;;;;;5028060;28;20228;-44
2021/11/07 01:14:59;;;;;;;3.35;1.35;;;21.60;57.20;;;;;;5015124;28;20755;-48
2021/11/07 01:17:30;;;;;;;3.85;1.33;;;21.70;57.20;;;;;;5029113;28;20747;-44
2021/11/07 01:20:02;;;;;;;3.75;1.35;;;21.70;57.10;;;;;;5029343;28;20199;-45
2021/11/07 01:22:41;;;;;;;3.72;1.50;;;21.70;57.10;;;;;;5030477;28;20764;-46
2021/11/07 01:25:12;;;;;;;5.05;1.45;;;21.70;57.10;;;;;;5029443;28;20208;-47
2021/11/07 01:27:44;;;;;;;3.47;1.25;;;21.80;57.10;;;;;;5029285;28;20294;-44
2021/11/07 01:30:20;;;;;;;5.90;1.50;;;21.80;57.00;;;;;;5028644;28;20287;-43
2021/11/07 01:32:57;;;;;;;3.85;1.42;;;21.80;57.00;;;;;;5028845;28;20219;-45
2021/11/07 01:35:36;;;;;;;4.07;1.58;;;21.90;56.90;;;;;;5027956;28;20285;-50
2021/11/07 01:38:14;;;;;;;2.85;1.00;;;21.90;56.80;;;;;;5028775;28;20200;-45
2021/11/07 01:40:48;;;;;;;4.25;1.50;;;21.90;56.80;;;;;;5017604;28;20200;-44
2021/11/07 01:43:19;;;;;;;3.00;1.45;;;21.90;56.60;;;;;;5028168;28;20234;-48
2021/11/07 01:45:53;;;;;;;3.83;1.30;;;22.00;56.60;;;;;;5027972;28;20291;-46
2021/11/07 01:48:26;;;;;;;5.07;1.60;;;22.00;56.60;;;;;;5028697;28;20279;-42
2021/11/07 01:51:00;;;;;;;4.22;1.38;;;22.00;56.50;;;;;;5029904;28;20258;-42
2021/11/07 01:53:34;;;;;;;5.07;1.60;;;22.10;56.50;;;;;;5028556;28;20595;-47
2021/11/07 01:56:07;;;;;;;4.95;1.50;;;22.10;56.40;;;;;;5028507;28;20207;-43
2021/11/07 01:58:39;;;;;;;3.58;1.40;;;22.10;56.30;;;;;;5027902;28;21449;-45
2021/11/07 02:01:10;;;;;;;7.95;1.70;;;22.10;56.20;;;;;;5028633;28;20231;-44
2021/11/07 02:03:41;;;;;;;3.35;1.70;;;22.20;56.20;;;;;;5025596;28;20216;-43
2021/11/07 02:06:14;;;;;;;4.03;1.80;;;22.20;56.10;;;;;;5028353;28;20200;-46
2021/11/07 02:08:45;;;;;;;3.78;1.63;;;22.20;56.00;;;;;;5028150;28;20192;-45
2021/11/07 02:11:16;;;;;;;4.43;1.88;;;22.20;55.90;;;;;;5016686;28;20207;-45
2021/11/07 02:13:49;;;;;;;5.15;1.58;;;22.20;55.90;;;;;;5019838;28;20649;-47
2021/11/07 02:16:19;;;;;;;4.22;1.52;;;22.30;55.90;;;;;;5029012;28;20200;-45
2021/11/07 02:18:50;;;;;;;3.92;1.98;;;22.30;55.80;;;;;;5028712;28;20291;-45
2021/11/07 02:21:31;;;;;;;5.35;1.50;;;22.30;55.80;;;;;;5027506;28;20299;-43
2021/11/07 02:24:02;;;;;;;4.07;1.60;;;22.30;55.70;;;;;;5025607;28;20611;-45
2021/11/07 02:26:32;;;;;;;5.32;1.90;;;22.40;55.70;;;;;;5028086;28;20206;-45
2021/11/07 02:29:03;;;;;;;3.15;1.65;;;22.40;55.70;;;;;;5031517;28;20275;-44
2021/11/07 02:31:33;;;;;;;5.00;1.95;;;22.40;55.60;;;;;;5031338;28;20238;-43
2021/11/07 02:34:03;;;;;;;4.82;1.70;;;22.50;55.60;;;;;;5032314;28;20201;-47
2021/11/07 02:36:36;;;;;;;3.65;1.70;;;22.50;55.50;;;;;;5029866;28;20228;-42
2021/11/07 02:39:06;;;;;;;5.47;1.77;;;22.50;55.40;;;;;;5033441;28;20286;-45
2021/11/07 02:41:37;;;;;;;5.20;1.73;;;22.50;55.40;;;;;;5031283;28;20234;-44
2021/11/07 02:44:08;;;;;;;4.72;1.90;;;22.50;55.40;;;;;;5031759;28;20295;-42
2021/11/07 02:46:38;;;;;;;6.22;2.13;;;22.60;55.30;;;;;;5032163;28;20287;-48
2021/11/07 02:49:09;;;;;;;4.25;1.85;;;22.60;55.30;;;;;;5026396;28;20275;-42
2021/11/07 02:51:41;;;;;;;6.15;1.77;;;22.60;55.20;;;;;;5029095;28;20279;-43
2021/11/07 02:54:12;;;;;;;3.88;1.70;;;22.60;55.20;;;;;;5030994;28;20294;-42
2021/11/07 02:56:42;;;;;;;5.97;1.80;;;22.70;55.10;;;;;;5032687;28;20284;-44
2021/11/07 02:59:21;;;;;;;4.97;2.10;;;22.70;55.10;;;;;;5031671;28;20236;-45
2021/11/07 03:01:52;;;;;;;5.00;1.88;;;22.70;55.10;;;;;;5032413;28;20231;-46
2021/11/07 03:04:22;;;;;;;4.40;1.80;;;22.80;55.00;;;;;;5031744;28;20231;-43
2021/11/07 03:06:54;;;;;;;4.05;2.10;;;22.80;54.90;;;;;;5031342;28;20236;-48
2021/11/07 03:09:29;;;;;;;6.25;2.03;;;22.80;54.80;;;;;;5031723;28;20287;-43
2021/11/07 03:12:01;;;;;;;4.07;1.88;;;22.80;54.80;;;;;;5029842;28;20311;-44
2021/11/07 03:14:33;;;;;;;4.03;1.77;;;22.90;54.70;;;;;;5026168;28;20266;-43
2021/11/07 03:17:04;;;;;;;4.40;1.80;;;22.90;54.60;;;;;;5032248;28;20200;-45
2021/11/07 03:19:36;;;;;;;3.60;1.70;;;22.90;54.60;;;;;;5030232;28;20641;-41
2021/11/07 03:22:11;;;;;;;4.63;1.73;;;23.00;54.50;;;;;;5030282;28;20307;-41
2021/11/07 03:24:43;;;;;;;4.95;1.95;;;23.00;54.50;;;;;;5031468;28;20196;-40
2021/11/07 03:27:16;;;;;;;3.25;1.60;;;23.00;54.50;;;;;;5032237;28;20196;-43
2021/11/07 03:29:49;;;;;;;5.00;2.00;;;23.00;54.40;;;;;;5031167;28;20204;-40
2021/11/07 03:32:21;;;;;;;3.22;1.55;;;23.10;54.40;;;;;;5030893;28;20220;-40
2021/11/07 03:34:55;;;;;;;4.30;2.10;;;23.10;54.40;;;;;;5030741;28;20224;-40
2021/11/07 03:37:30;;;;;;;3.55;1.95;;;23.10;54.30;;;;;;5030088;28;20201;-40
2021/11/07 03:40:01;;;;;;;4.80;2.05;;;23.10;54.20;;;;;;5030555;28;20227;-40
2021/11/07 03:42:32;;;;;;;4.03;1.77;;;23.10;54.10;;;;;;5030257;28;20243;-42
2021/11/07 03:45:03;;;;;;;3.72;1.83;;;23.20;54.00;;;;;;5030849;28;20287;-45
2021/11/07 03:47:33;;;;;;;2.85;1.60;;;23.20;54.00;;;;;;5030927;28;20295;-41
2021/11/07 03:50:06;;;;;;;4.95;1.85;;;23.20;53.90;;;;;;5031808;28;20287;-43
2021/11/07 03:52:38;;;;;;;5.10;1.65;;;23.30;53.90;;;;;;5030795;28;20289;-43
2021/11/07 03:55:10;;;;;;;4.05;1.67;;;23.30;53.90;;;;;;5030664;28;20285;-40
2021/11/07 03:57:40;;;;;;;4.80;1.80;;;23.30;53.80;;;;;;5030187;28;20603;-40
2021/11/07 04:00:12;;;;;;;5.43;1.77;;;23.30;53.70;;;;;;5031559;28;20291;-45
2021/11/07 04:02:43;;;;;;;3.80;1.83;;;23.30;53.60;;;;;;5030402;28;20797;-43
2021/11/07 04:05:13;;;;;;;4.63;2.28;;;23.40;53.60;;;;;;5030924;28;20715;-40
2021/11/07 04:07:46;;;;;;;5.15;2.33;;;23.40;53.60;;;;;;5030003;28;20279;-46
2021/11/07 04:10:17;;;;;;;4.32;2.28;;;23.40;53.50;;;;;;5014390;28;20201;-41
2021/11/07 04:12:47;;;;;;;4.55;2.03;;;23.40;53.50;;;;;;5031258;28;20235;-42
2021/11/07 04:15:18;;;;;;;3.00;1.77;;;23.40;53.30;;;;;;5030013;28;20299;-41
2021/11/07 04:17:48;;;;;;;4.72;2.08;;;23.50;53.30;;;;;;5026941;28;20211;-41
2021/11/07 04:20:19;;;;;;;4.50;2.08;;;23.50;53.20;;;;;;5029994;28;20283;-40
2021/11/07 04:22:51;;;;;;;6.53;2.40;;;23.50;53.20;;;;;;5030269;28;20711;-42
2021/11/07 04:25:22;;;;;;;5.32;2.10;;;23.50;53.10;;;;;;5029107;28;20197;-41
2021/11/07 04:27:52;;;;;;;3.45;1.83;;;23.50;53.00;;;;;;5018815;28;20231;-41
2021/11/07 04:30:23;;;;;;;3.17;2.03;;;23.50;53.00;;;;;;5029899;28;20287;-41
2021/11/07 04:32:57;;;;;;;5.10;2.30;;;23.60;53.00;;;;;;5030321;28;20220;-41
2021/11/07 04:35:28;;;;;;;3.75;1.77;;;23.60;52.90;;;;;;5031385;28;20312;-40
2021/11/07 04:38:01;;;;;;;5.20;2.17;;;23.60;52.90;;;;;;5031461;28;20223;-41
2021/11/07 04:40:31;;;;;;;4.45;1.95;;;23.60;52.80;;;;;;5030979;28;20232;-42
2021/11/07 04:43:01;;;;;;;3.60;1.60;;;23.60;52.80;;;;;;5031100;28;20315;-40
2021/11/07 04:45:32;;;;;;;4.88;2.13;;;23.60;52.80;;;;;;5027615;28;20192;-44
2021/11/07 04:48:04;;;;;;;4.93;2.00;;;23.70;52.80;;;;;;5024019;28;20642;-40
2021/11/07 04:50:38;;;;;;;3.25;1.58;;;23.60;52.70;;;;;;5030010;28;20288;-46
2021/11/07 04:53:12;;;;;;;3.95;1.92;;;23.70;52.70;;;;;;5029189;28;20227;-41
2021/11/07 04:55:44;;;;;;;6.63;2.17;;;23.70;52.70;;;;;;5014086;28;20278;-41
2021/11/07 04:58:15;;;;;;;6.18;2.20;;;23.70;52.70;;;;;;5030085;28;20283;-42
2021/11/07 05:00:45;;;;;;;4.15;2.03;;;23.70;52.70;;;;;;5030245;28;20913;-41
2021/11/07 05:03:16;;;;;;;5.43;1.92;;;23.70;52.60;;;;;;5029619;28;20263;-42
2021/11/07 05:05:46;;;;;;;2.95;1.67;;;23.70;52.60;;;;;;5028295;28;20283;-43
2021/11/07 05:08:19;;;;;;;4.55;1.80;;;23.70;52.60;;;;;;5029285;28;20200;-40
2021/11/07 05:10:49;;;;;;;5.43;2.05;;;23.70;52.50;;;;;;5029771;28;20311;-42
2021/11/07 05:13:20;;;;;;;4.50;1.80;;;23.70;52.50;;;;;;5029313;28;20315;-41
2021/11/07 05:15:50;;;;;;;3.88;2.15;;;23.70;52.50;;;;;;5028605;28;20316;-43
2021/11/07 05:18:21;;;;;;;3.45;1.92;;;23.70;52.50;;;;;;5023959;28;20271;-41
2021/11/07 05:20:52;;;;;;;3.72;1.88;;;23.80;52.50;;;;;;5029998;28;20727;-41
2021/11/07 05:23:25;;;;;;;4.43;2.00;;;23.70;52.50;;;;;;5029194;28;20224;-40
2021/11/07 05:25:57;;;;;;;3.58;2.28;;;23.70;52.50;;;;;;5028864;28;20200;-42
2021/11/07 05:28:28;;;;;;;5.88;2.08;;;23.80;52.50;;;;;;5028265;28;20232;-40
2021/11/07 05:30:58;;;;;;;3.50;1.98;;;23.80;52.50;;;;;;5028497;28;20215;-40
2021/11/07 05:33:29;;;;;;;6.53;2.40;;;23.80;52.50;;;;;;5028216;28;20294;-40
2021/11/07 05:35:59;;;;;;;3.78;2.00;;;23.80;52.50;;;;;;5028135;28;20346;-40
2021/11/07 05:38:31;;;;;;;4.63;2.15;;;23.80;52.50;;;;;;5027534;28;20286;-41
2021/11/07 05:41:02;;;;;;;6.32;2.00;;;23.80;52.40;;;;;;5028810;28;20308;-42
2021/11/07 05:43:32;;;;;;;3.72;2.08;;;23.80;52.40;;;;;;5029408;28;20327;-40
2021/11/07 05:46:03;;;;;;;4.55;2.17;;;23.80;52.40;;;;;;5029403;28;20291;-40
2021/11/07 05:48:33;;;;;;;8.38;2.20;;;23.80;52.40;;;;;;5027931;28;20196;-42
2021/11/07 05:51:04;;;;;;;5.97;2.42;;;23.80;52.20;;;;;;5021944;28;20287;-40
2021/11/07 05:53:36;;;;;;;6.95;1.90;;;23.70;52.00;;;;;;5028751;28;20300;-40
2021/11/07 05:56:08;;;;;;;5.57;2.35;;;23.70;52.10;;;;;;5029960;28;20302;-45
2021/11/07 05:58:38;;;;;;;7.15;2.38;;;23.70;52.20;;;;;;5028615;28;20282;-42
2021/11/07 06:01:09;;;;;;;5.20;1.95;;;23.70;52.30;;;;;;5028179;28;20308;-42
2021/11/07 06:03:39;;;;;;;5.70;2.03;;;23.70;52.30;;;;;;5011738;28;20230;-40
2021/11/07 06:06:10;;;;;;;5.82;2.33;;;23.70;52.30;;;;;;5026008;28;20637;-41
2021/11/07 06:08:43;;;;;;;8.45;2.85;;;23.70;52.30;;;;;;5029179;28;20242;-41
2021/11/07 06:11:14;;;;;;;5.63;2.30;;;23.70;52.40;;;;;;5027660;28;20288;-40
2021/11/07 06:13:44;;;;;;;5.78;2.47;;;23.60;52.40;;;;;;5018639;28;20216;-40
2021/11/07 06:16:15;;;;;;;6.28;2.17;;;23.60;52.40;;;;;;5023589;28;20306;-41
2021/11/07 06:18:45;;;;;;;3.92;2.53;;;23.60;52.30;;;;;;5027802;28;20660;-40
2021/11/07 06:21:16;;;;;;;5.40;2.25;;;23.60;52.30;;;;;;5021703;28;20572;-41
2021/11/07 06:23:49;;;;;;;5.13;2.58;;;23.60;52.30;;;;;;5028883;28;20228;-45
2021/11/07 06:26:20;;;;;;;6.82;2.45;;;23.60;52.30;;;;;;5029296;28;20204;-40
2021/11/07 06:28:51;;;;;;;4.22;2.45;;;23.60;52.30;;;;;;5029175;28;20227;-41
2021/11/07 06:31:23;;;;;;;5.72;2.25;;;23.60;52.30;;;;;;5028345;28;20235;-40
2021/11/07 06:33:53;;;;;;;6.18;2.60;;;23.70;52.30;;;;;;5028380;28;20691;-41
2021/11/07 06:36:24;;;;;;;3.72;2.08;;;23.60;52.20;;;;;;5028046;28;20672;-41
2021/11/07 06:38:57;;;;;;;5.05;2.33;;;23.60;52.80;;;;;;5027983;28;20287;-41
2021/11/07 06:41:27;;;;;;;3.80;2.10;;;23.60;52.20;;;;;;5025903;28;20652;-40
2021/11/07 06:43:59;;;;;;;3.72;2.40;;;23.60;52.10;;;;;;5025893;28;20216;-45
2021/11/07 06:46:29;;;;;;;4.72;2.22;;;23.60;52.10;;;;;;5027468;28;20200;-41
2021/11/07 06:48:59;;;;;;;4.30;2.22;;;23.60;52.10;;;;;;5027991;28;20281;-41
2021/11/07 06:51:30;;;;;;;4.43;2.38;;;23.60;52.10;;;;;;5019792;28;20640;-41
2021/11/07 06:54:02;;;;;;;5.07;2.28;;;23.60;52.10;;;;;;5028928;28;20256;-40
2021/11/07 06:56:33;;;;;;;4.43;2.55;;;23.60;52.10;;;;;;5025358;28;20311;-39
2021/11/07 06:59:04;;;;;;;4.18;1.98;;;23.50;52.00;;;;;;5023453;28;20200;-41
2021/11/07 07:01:35;;;;;;;4.18;2.20;;;23.50;52.00;;;;;;5027625;28;20279;-40
2021/11/07 07:04:05;;;;;;;4.75;2.67;;;23.50;52.00;;;;;;5025195;28;20244;-40
2021/11/07 07:06:37;;;;;;;4.35;2.20;;;23.50;52.00;;;;;;5024363;28;20207;-41
2021/11/07 07:09:11;;;;;;;5.53;2.55;;;23.50;52.00;;;;;;5027695;28;20300;-40
2021/11/07 07:11:44;;;;;;;3.63;2.05;;;23.50;52.10;;;;;;5027777;28;20303;-40
2021/11/07 07:14:18;;;;;;;4.70;2.20;;;23.50;52.10;;;;;;5020234;28;20259;-40
2021/11/07 07:16:56;;;;;;;5.13;2.10;;;23.40;52.10;;;;;;5032070;28;20574;-40
2021/11/07 07:19:40;;;;;;;3.53;2.08;;;23.40;52.10;;;;;;5031291;28;20290;-40
2021/11/07 07:22:29;;;;;;;4.22;2.05;;;23.40;52.10;;;;;;5025933;28;20320;-41
2021/11/07 07:28:00;;;;;;;3.35;2.00;;;23.40;52.10;;;;;;5030079;28;20211;-44
2021/11/07 07:30:38;;;;;;;6.18;2.53;;;23.40;52.00;;;;;;5031496;28;20614;-44
2021/11/07 07:33:26;;;;;;;3.40;2.00;;;23.30;52.00;;;;;;5030543;28;20602;-41
2021/11/07 07:35:58;;;;;;;4.03;2.35;;;23.30;52.00;;;;;;5030577;28;20591;-42
2021/11/07 07:38:28;;;;;;;4.35;1.85;;;23.30;52.00;;;;;;5031181;28;20204;-41
2021/11/07 07:41:03;;;;;;;4.10;2.20;;;23.30;52.00;;;;;;5030672;28;20279;-40
2021/11/07 07:43:34;;;;;;;3.55;1.90;;;23.30;52.00;;;;;;5029668;28;20226;-40
2021/11/07 07:46:08;;;;;;;4.18;2.33;;;23.20;52.00;;;;;;5029987;28;20204;-41
2021/11/07 07:48:41;;;;;;;3.13;2.15;;;23.20;52.00;;;;;;5027298;28;20204;-40
2021/11/07 07:51:13;;;;;;;2.97;2.13;;;23.20;52.00;;;;;;5030829;28;20208;-41
2021/11/07 07:53:45;;;;;;;3.53;2.08;;;23.10;52.00;;;;;;5021866;28;20213;-42
2021/11/07 07:56:18;;;;;;;4.45;1.90;;;23.10;52.10;;;;;;5031169;28;20339;-40
2021/11/07 07:58:48;;;;;;;3.70;2.00;;;23.10;52.10;;;;;;5028231;28;20287;-41
2021/11/07 08:01:18;;;;;;;3.88;2.00;;;23.10;52.10;;;;;;5030567;28;20200;-43
2021/11/07 08:03:49;;;;;;;3.67;2.05;;;23.10;52.10;;;;;;5029993;28;20911;-42
2021/11/07 08:06:20;;;;;;;3.90;1.95;;;23.00;52.10;;;;;;5029481;28;20691;-41
2021/11/07 08:08:50;;;;;;;3.38;2.20;;;23.00;52.20;;;;;;5029550;28;20809;-43
2021/11/07 08:11:23;;;;;;;5.05;2.50;;;23.00;52.10;;;;;;5030699;28;20284;-41
2021/11/07 08:13:54;;;;;;;4.30;2.10;;;23.00;52.10;;;;;;5025695;28;20251;-41
2021/11/07 08:16:26;;;;;;;2.92;1.85;;;23.00;52.10;;;;;;5032239;28;20307;-43
2021/11/07 08:18:57;;;;;;;3.35;1.70;;;22.90;52.00;;;;;;5030234;28;20284;-44
2021/11/07 08:21:30;;;;;;;4.28;2.20;;;22.90;52.10;;;;;;5029721;28;20288;-39
2021/11/07 08:24:01;;;;;;;2.17;1.67;;;22.90;52.10;;;;;;5029650;28;20303;-40
2021/11/07 08:26:34;;;;;;;3.42;1.80;;;22.90;52.10;;;;;;5021229;28;20208;-42
2021/11/07 08:29:06;;;;;;;2.38;1.70;;;22.80;52.10;;;;;;5028978;28;20204;-42
2021/11/07 08:31:38;;;;;;;3.92;1.92;;;22.80;52.10;;;;;;5029896;28;20215;-41
2021/11/07 08:34:09;;;;;;;4.15;1.90;;;22.80;52.20;;;;;;5027757;28;20243;-42
2021/11/07 08:36:46;;;;;;;3.42;1.92;;;22.80;52.30;;;;;;5028878;28;20225;-40
2021/11/07 08:39:18;;;;;;;3.17;1.73;;;22.70;52.20;;;;;;5030042;28;20231;-41
2021/11/07 08:41:56;;;;;;;2.45;1.85;;;22.70;52.20;;;;;;5030763;28;20704;-40
2021/11/07 09:01:15;;;;;;;3.03;1.90;;;22.50;52.20;;;;;;5030900;28;20255;-40
2021/11/07 09:03:55;;;;;;;2.22;1.88;;;22.50;52.30;;;;;;5029046;28;20246;-44
2021/11/07 09:06:44;;;;;;;3.28;2.00;;;22.50;52.30;;;;;;5029557;28;20196;-42
2021/11/07 09:09:16;;;;;;;2.90;1.83;;;22.40;52.20;;;;;;5028294;28;20236;-43
2021/11/07 09:11:52;;;;;;;3.75;1.92;;;22.40;52.30;;;;;;5029510;28;20289;-44
2021/11/07 09:14:29;;;;;;;1.60;1.42;;;22.40;52.30;;;;;;5024230;28;20202;-40
2021/11/07 09:17:00;;;;;;;2.95;1.90;;;22.30;52.30;;;;;;5029411;28;20226;-41
2021/11/07 09:19:32;;;;;;;3.33;1.95;;;22.30;52.30;;;;;;5029523;28;20621;-42
2021/11/07 09:22:06;;;;;;;2.88;1.88;;;22.30;52.30;;;;;;5012793;28;20201;-41
2021/11/07 09:24:43;;;;;;;2.42;1.80;;;22.20;52.30;;;;;;5029115;28;20223;-40
2021/11/07 09:27:20;;;;;;;2.38;1.70;;;22.20;52.30;;;;;;5029380;28;20787;-40
2021/11/07 09:30:01;;;;;;;2.78;1.70;;;22.20;52.40;;;;;;5029845;28;20287;-41
2021/11/07 09:32:48;;;;;;;2.10;1.67;;;22.20;52.40;;;;;;5029118;28;20611;-45
2021/11/07 09:35:30;;;;;;;3.60;1.73;;;22.20;52.40;;;;;;5027047;28;20200;-41
2021/11/07 09:38:04;;;;;;;1.92;1.67;;;22.20;52.40;;;;;;5028138;28;20228;-40
2021/11/07 09:40:37;;;;;;;3.30;1.65;;;22.20;52.40;;;;;;5028168;28;20203;-40
2021/11/07 09:43:39;;;;;;;2.10;1.52;;;22.10;52.40;;;;;;5028340;28;20746;-42
2021/11/07 09:46:19;;;;;;;3.03;1.48;;;22.10;52.40;;;;;;5027517;28;20200;-41
2021/11/07 09:48:55;;;;;;;2.50;1.60;;;22.10;53.00;;;;;;5027672;28;20226;-41
2021/11/07 09:51:32;;;;;;;3.65;1.73;;;22.10;52.50;;;;;;5029015;28;20673;-41
2021/11/07 09:54:03;;;;;;;2.60;2.08;;;22.00;52.40;;;;;;5028276;28;20727;-40
2021/11/07 09:56:34;;;;;;;3.05;1.77;;;22.00;52.50;;;;;;5027973;28;20737;-40
2021/11/07 09:59:05;;;;;;;1.92;1.67;;;22.00;52.50;;;;;;5028304;28;20279;-42
2021/11/07 10:01:37;;;;;;;2.58;1.60;;;22.00;52.60;;;;;;5029429;28;20336;-42
2021/11/07 10:04:09;;;;;;;3.25;1.63;;;22.00;52.60;;;;;;5029685;28;20303;-40
2021/11/07 10:06:45;;;;;;;2.33;1.73;;;21.90;52.50;;;;;;5027169;28;20230;-41
2021/11/07 10:09:30;;;;;;;3.20;1.75;;;21.90;52.50;;;;;;5027708;28;20281;-41
2021/11/07 10:12:09;;;;;;;2.67;1.70;;;21.90;52.60;;;;;;5027515;28;20611;-40
2021/11/07 10:14:46;;;;;;;4.35;2.08;;;21.90;52.60;;;;;;5027462;28;20203;-41
2021/11/07 10:17:33;;;;;;;2.60;1.80;;;21.90;52.60;;;;;;5028723;28;20225;-41
2021/11/07 10:20:12;;;;;;;2.30;1.67;;;21.90;52.60;;;;;;5029711;28;20200;-43
2021/11/07 10:22:43;;;;;;;2.63;1.80;;;21.90;52.60;;;;;;5033928;28;20230;-44
2021/11/07 10:25:18;;;;;;;2.72;1.70;;;21.80;52.60;;;;;;5028037;28;20634;-41
2021/11/07 10:27:51;;;;;;;3.33;1.77;;;21.80;52.60;;;;;;5028110;28;20200;-42
2021/11/07 10:30:24;;;;;;;1.83;1.60;;;21.80;52.70;;;;;;5028380;28;20203;-40
2021/11/07 10:33:03;;;;;;;3.03;1.73;;;21.80;52.70;;;;;;5014292;28;20219;-45
2021/11/07 10:41:42;;;;;;;3.25;1.77;;;21.70;52.70;;;;;;5026518;28;20278;-42
2021/11/07 10:47:26;;;;;;;3.38;1.67;;;21.70;52.70;;;;;;5008528;28;20242;-40
2021/11/07 10:52:49;;;;;;;2.85;1.83;;;21.70;52.70;;;;;;5032118;28;20346;-42
2021/11/07 10:55:21;;;;;;;2.17;1.60;;;21.60;52.70;;;;;;5030751;28;20192;-42
2021/11/07 10:57:54;;;;;;;3.08;1.42;;;21.60;52.60;;;;;;5031987;28;20315;-41
2021/11/07 11:00:31;;;;;;;2.55;1.60;;;21.60;52.70;;;;;;5032114;28;20287;-42
2021/11/07 11:03:04;;;;;;;1.95;1.40;;;21.60;52.70;;;;;;5030549;28;20306;-43
2021/11/07 11:05:42;;;;;;;2.45;1.77;;;21.60;52.80;;;;;;5030525;28;20634;-40
2021/11/07 11:08:17;;;;;;;2.45;1.75;;;21.60;52.80;;;;;;5030903;28;20262;-45
2021/11/07 11:10:56;;;;;;;2.50;1.80;;;21.60;52.80;;;;;;5031458;28;20196;-41
2021/11/07 11:13:33;;;;;;;2.33;1.50;;;21.50;52.70;;;;;;5030688;28;20216;-45
2021/11/07 11:25:01;;;;;;;2.42;1.60;;;21.50;52.70;;;;;;5020628;28;20285;-41
2021/11/07 11:27:44;;;;;;;2.03;1.60;;;21.50;52.70;;;;;;5019968;28;20531;-40
2021/11/07 11:33:06;;;;;;;2.85;1.73;;;21.40;52.80;;;;;;5022383;28;20227;-42
2021/11/07 11:35:39;;;;;;;1.60;1.42;;;21.40;52.80;;;;;;5031545;28;20803;-40
2021/11/07 11:38:16;;;;;;;2.42;1.70;;;21.40;52.80;;;;;;5014705;28;20221;-42
2021/11/07 11:40:59;;;;;;;3.75;1.70;;;21.40;52.80;;;;;;5030269;28;20192;-42
2021/11/07 11:43:34;;;;;;;2.25;1.60;;;21.40;52.80;;;;;;5030610;28;20250;-42
2021/11/07 11:46:15;;;;;;;2.00;1.50;;;21.40;52.80;;;;;;5030547;28;20208;-42
2021/11/07 11:49:16;;;;;;;1.70;1.48;;;21.40;52.80;;;;;;5031389;28;20697;-40
2021/11/07 11:52:14;;;;;;;1.92;1.52;;;21.30;52.80;;;;;;5031688;28;20199;-41
2021/11/07 11:55:04;;;;;;;2.53;1.50;;;21.30;52.80;;;;;;5031435;28;20676;-40
2021/11/07 11:57:53;;;;;;;2.35;1.75;;;21.30;52.80;;;;;;5020314;28;20307;-40
2021/11/07 12:00:39;;;;;;;2.10;1.55;;;21.30;52.80;;;;;;5029952;28;20695;-41
2021/11/07 12:03:16;;;;;;;1.58;1.30;;;21.30;52.80;;;;;;5031147;28;20228;-40
2021/11/07 12:05:51;;;;;;;1.80;1.20;;;21.30;52.80;;;;;;5030407;28;20196;-42
2021/11/07 12:08:37;;;;;;;1.98;1.38;;;21.30;52.90;;;;;;5029875;28;20211;-39
2021/11/07 12:11:31;;;;;;;1.40;1.30;;;21.20;52.80;;;;;;5029157;28;20291;-41
2021/11/07 12:14:10;;;;;;;1.95;1.60;;;21.20;52.90;;;;;;5030618;28;20234;-41
2021/11/07 12:16:51;;;;;;;2.28;1.35;;;21.20;52.90;;;;;;5028931;28;20207;-44
2021/11/07 12:19:22;;;;;;;1.85;1.65;;;21.20;52.90;;;;;;5028841;28;20254;-41
2021/11/07 12:22:12;;;;;;;1.88;1.38;;;21.20;52.90;;;;;;5029340;28;20286;-40
2021/11/07 12:25:09;;;;;;;2.17;1.50;;;21.20;52.90;;;;;;5029136;28;20222;-40
2021/11/07 12:27:49;;;;;;;2.72;1.40;;;21.10;52.80;;;;;;5025668;28;20287;-41
2021/11/07 12:30:26;;;;;;;1.70;1.45;;;21.20;52.80;;;;;;5029187;28;20759;-43
2021/11/07 12:33:09;;;;;;;1.50;1.30;;;21.20;52.90;;;;;;5027341;28;20750;-40
2021/11/07 12:35:47;;;;;;;2.80;1.60;;;21.20;52.90;;;;;;5029273;28;20600;-46
2021/11/07 12:41:21;;;;;;;1.92;1.35;;;21.10;52.80;;;;;;5028503;28;20682;-43
2021/11/07 12:43:59;;;;;;;1.75;1.30;;;21.10;52.80;;;;;;5028676;28;20223;-41
2021/11/07 12:46:40;;;;;;;1.65;1.40;;;21.10;52.90;;;;;;5028643;28;20204;-41
2021/11/07 12:49:22;;;;;;;1.85;1.33;;;21.10;52.90;;;;;;5028558;28;20208;-40
2021/11/07 12:51:54;;;;;;;2.00;1.20;;;21.10;53.00;;;;;;5013528;28;20294;-41
2021/11/07 12:54:31;;;;;;;2.35;1.40;;;21.10;53.00;;;;;;5028093;28;20302;-40
2021/11/07 12:57:04;;;;;;;1.60;1.40;;;21.10;53.00;;;;;;5029786;28;20671;-39
2021/11/07 12:59:38;;;;;;;1.42;1.33;;;21.00;52.90;;;;;;5029743;28;20232;-40
2021/11/07 13:02:22;;;;;;;1.50;1.30;;;21.00;52.90;;;;;;5028255;28;20283;-40
2021/11/07 13:04:57;;;;;;;1.77;1.33;;;21.00;53.00;;;;;;5028151;28;20235;-41
2021/11/07 13:07:34;;;;;;;1.77;1.40;;;21.00;53.00;;;;;;5028405;28;20195;-42
2021/11/07 13:10:08;;;;;;;1.67;1.35;;;21.00;53.00;;;;;;5028208;28;20204;-42
2021/11/07 13:12:42;;;;;;;1.23;1.10;;;21.00;53.00;;;;;;5027557;28;20223;-41
2021/11/07 13:15:31;;;;;;;2.25;1.35;;;21.00;53.00;;;;;;5028071;28;20504;-42
2021/11/07 13:18:24;;;;;;;1.83;1.45;;;21.00;53.00;;;;;;5028227;28;20226;-43
2021/11/07 13:21:13;;;;;;;1.60;1.10;;;21.00;53.00;;;;;;5028539;28;20242;-41
2021/11/07 13:26:59;;;;;;;1.95;1.40;;;20.90;52.90;;;;;;5027539;28;20207;-42
2021/11/07 13:29:34;;;;;;;1.33;1.20;;;20.90;52.90;;;;;;5029964;28;20200;-42
2021/11/07 13:32:29;;;;;;;1.40;1.20;;;20.90;52.90;;;;;;5027849;28;20196;-44
2021/11/07 13:35:08;;;;;;;1.33;1.17;;;20.90;53.00;;;;;;5028193;28;20265;-41
2021/11/07 13:37:41;;;;;;;1.90;1.27;;;20.90;53.00;;;;;;5028043;28;20226;-46
2021/11/07 13:40:21;;;;;;;1.48;1.17;;;20.90;53.00;;;;;;5028347;28;20252;-42
2021/11/07 13:42:52;;;;;;;1.42;1.33;;;20.90;53.00;;;;;;5024751;28;20690;-42
2021/11/07 13:45:28;;;;;;;1.40;1.20;;;20.90;53.00;;;;;;5027784;28;20275;-43
2021/11/07 13:48:04;;;;;;;1.75;1.33;;;20.80;53.00;;;;;;5028931;28;20287;-47
2021/11/07 13:50:36;;;;;;;1.40;1.20;;;20.80;53.00;;;;;;5028802;28;20218;-42
2021/11/07 13:53:07;;;;;;;1.55;1.23;;;20.80;53.00;;;;;;5027700;28;20718;-46
2021/11/07 13:55:38;;;;;;;1.48;1.27;;;20.80;53.00;;;;;;5027786;28;20291;-40
2021/11/07 13:58:16;;;;;;;1.70;1.30;;;20.80;53.00;;;;;;5026836;28;20226;-40
2021/11/07 14:00:47;;;;;;;1.30;1.20;;;20.80;53.00;;;;;;5027674;28;20766;-44
2021/11/07 14:03:20;;;;;;;1.58;1.20;;;20.70;53.00;;;;;;5027295;28;20644;-46
2021/11/07 14:05:57;;;;;;;2.33;1.30;;;20.80;53.00;;;;;;5027749;28;20227;-42
2021/11/07 14:08:27;;;;;;;1.33;1.23;;;20.80;53.00;;;;;;5027683;28;20282;-40
2021/11/07 14:11:06;;;;;;;1.98;1.30;;;20.80;53.00;;;;;;5027504;28;20242;-44
2021/11/07 14:13:44;;;;;;;1.13;1.02;;;20.80;53.00;;;;;;5027433;28;20250;-45
2021/11/07 14:16:15;;;;;;;1.50;1.15;;;20.80;53.00;;;;;;5029086;28;20267;-43
2021/11/07 14:18:49;;;;;;;1.20;1.00;;;20.70;53.60;;;;;;5027260;28;20615;-41